Share

Gillette, WY

(North Gillette) (KWYGILLE6) Elev 4642 ft | 44.31 °N, 105.52 °W | Change Station

Current weather conditions updated 1 second ago

Clear
Clear
45.2 °F
Feels Like 45 °F
N
0.0
Wind Variable Wind from SSW
Gusts 2.0 mph
Sunrise 6:13 AM
Sunset 7:51 PM
Moon Waning Gibbous

Today is forecast to be Much Warmer than yesterday.

Pressure 29.75 in
Visibility 10.0 miles
Clouds Clear
Windchill 45 °F
Dew Point 36 °F
Humidity 71%
Rainfall 0.00 in
Snow Depth Not available.
UV 0 out of 16
Pollen 8.40 out of 12
Air Quality Not available.
Flu Activity Sporadic
METAR KBYG 180653Z AUTO VRB03KT 10SM CLR 08/M03 A2982 RMK AO2 SLP075 T00781033 401561028 $

More Conditions Fewer Conditions

Pressure 29.75 in
Visibility 10.0 miles
Clouds Clear
Windchill 45 °F
Dew Point 36 °F
Humidity 71%
Rainfall 0.00 in
Snow Depth Not available.
UV 0 out of 16
Pollen 8.40 out of 12
Air Quality Not available.
Flu Activity Sporadic
METAR KBYG 180653Z AUTO VRB03KT 10SM CLR 08/M03 A2982 RMK AO2 SLP075 T00781033 401561028 $

More Conditions Fewer Conditions

10-Day Forecast

Almanac

Astronomy

Apr. 18, 2014 Rise Set
Actual Time 6:13 AM MDT 7:51 PM MDT
Civil Twilight 5:42 AM MDT 8:22 PM MDT
Nautical Twilight 5:05 AM MDT 8:59 PM MDT
Astronomical Twilight 4:25 AM MDT 9:39 PM MDT
Moon 11:44 PM MDT 8:32 AM MDT
Length of Visible Light 14h 39m
Length of Day
13h 37m
Tomorrow will be 2m 55s longer.
Waning Gibbous, 90% of the Moon is Illuminated
Today
Waning Gibbous
Apr 22
Last Quarter
Apr 29
New
May 6
First Quarter
May 14
Full

Today's Extremes

State Highs State Lows

Community

  • SUNRISE THROUGH THE TREES.
    SUNRISE THROUGH THE TREES.
  • Dog Wood Blossoms
    Dog Wood Blossoms
  • Morning Light
    Morning Light
  • New Day
    New Day
  • Lake Michigan Sunrise
    Lake Michigan Sunrise

WunderPhotos

Upload Photos

1,702,279 photos uploaded!

WunderBlogs® & News

Nearby

Snow Depth

Station Depth Elevation
Cole Canyon 25 in 5910 ft
Hansen Sawmill 33 in 8360 ft
Cloud Peak Reservoir 70 in 9860 ft
Big Goose 47 in 7990 ft
Powder River Pass 50 in 9480 ft

Coastal Water Temperatures

Place Temperature
No Stations Reporting

Earthquake Activity

City Distance Mag. Time & Date
No recent earthquake activity has been reported nearby.
Minimum magnitude displayed is 2.5.

Nearby Weather Stations

Station Location Temp. Windchill Dew Point Humidity Wind Precip. Elev Updated Type
RAWS ECHETA WY, Gillette, WY 46 °F 39 °F 35 °F 65% SSE  at  17 mph 0.00 in / hr 4396 ft 11:51 PM MDT MADIS
(North Gillette), Gillette, WY 45.2 °F 45 °F 36 °F 71% SSW  at  0.0 mph 0.00 in / hr 4642 ft 1:12 AM MDT Rapid Fire

Show More Stations Show Fewer Stations

What do you think?

We're not finished. Please let us know what you like, what you don't like, and what you are still missing.